createdAt,value
2023-05-01T00:01:00.285Z,2.65
2023-05-01T00:03:28.064Z,2.17
2023-05-01T00:06:05.289Z,2.10
2023-05-01T00:08:32.679Z,2.00
2023-05-01T00:11:11.385Z,2.10
2023-05-01T00:13:38.849Z,2.95
2023-05-01T00:16:13.220Z,2.10
2023-05-01T00:18:40.523Z,1.77
2023-05-01T00:21:08.161Z,2.20
2023-05-01T00:23:35.473Z,1.92
2023-05-01T00:26:02.896Z,2.08
2023-05-01T00:28:30.021Z,1.92
2023-05-01T00:30:57.894Z,1.85
2023-05-01T00:33:25.159Z,2.00
2023-05-01T00:35:52.963Z,1.83
2023-05-01T00:38:20.294Z,1.95
2023-05-01T00:40:47.874Z,1.73
2023-05-01T00:43:16.519Z,1.80
2023-05-01T00:45:46.702Z,1.80
2023-05-01T00:48:15.324Z,1.90
2023-05-01T00:50:44.654Z,1.70
2023-05-01T00:53:12.761Z,1.95
2023-05-01T00:55:42.298Z,1.92
2023-05-01T00:58:12.136Z,2.00
2023-05-01T01:00:39.659Z,2.38
2023-05-01T01:03:07.327Z,2.50
2023-05-01T01:05:43.245Z,1.80
2023-05-01T01:08:41.267Z,2.70
2023-05-01T01:11:27.961Z,2.88
2023-05-01T01:14:19.733Z,4.85
2023-05-01T01:17:15.247Z,5.13
2023-05-01T01:22:58.174Z,4.20
2023-05-01T01:26:20.592Z,4.15
2023-05-01T01:29:24.729Z,3.58
2023-05-01T01:32:05.904Z,2.90
2023-05-01T01:34:49.819Z,2.35
2023-05-01T01:37:23.121Z,2.17
2023-05-01T01:40:08.008Z,2.03
2023-05-01T01:45:12.309Z,2.17
2023-05-01T01:47:42.469Z,1.95
2023-05-01T01:50:11.513Z,2.03
2023-05-01T01:52:42.427Z,2.03
2023-05-01T01:55:12.942Z,1.90
2023-05-01T01:57:45.095Z,1.98
2023-05-01T02:00:14.504Z,1.90
2023-05-01T02:02:47.085Z,2.10
2023-05-01T02:05:17.985Z,2.30
2023-05-01T02:07:49.184Z,2.00
2023-05-01T02:10:18.307Z,1.92
2023-05-01T02:12:48.852Z,2.08
2023-05-01T02:15:18.430Z,2.00
2023-05-01T02:17:45.781Z,1.80
2023-05-01T02:20:13.993Z,2.38
2023-05-01T02:22:42.525Z,2.00
2023-05-01T02:25:12.752Z,2.00
2023-05-01T02:27:56.591Z,2.38
2023-05-01T02:30:24.082Z,2.47
2023-05-01T02:32:51.383Z,2.83
2023-05-01T02:35:18.906Z,2.90
2023-05-01T02:37:46.604Z,2.60
2023-05-01T02:40:15.774Z,2.83
2023-05-01T02:42:45.125Z,2.90
2023-05-01T02:45:20.117Z,2.67
2023-05-01T02:47:54.643Z,2.30
2023-05-01T02:50:23.922Z,2.10
2023-05-01T02:52:51.577Z,2.20
2023-05-01T02:55:37.754Z,2.53
2023-05-01T02:58:05.078Z,2.15
2023-05-01T03:00:32.679Z,2.13
2023-05-01T03:03:00.026Z,2.28
2023-05-01T03:05:27.233Z,2.22
2023-05-01T03:07:54.348Z,2.10
2023-05-01T03:10:21.737Z,2.20
2023-05-01T03:12:48.998Z,2.20
2023-05-01T03:15:16.491Z,2.00
2023-05-01T03:17:43.666Z,1.63
2023-05-01T03:20:11.261Z,2.00
2023-05-01T03:22:39.418Z,1.83
2023-05-01T03:25:08.369Z,2.13
2023-05-01T03:27:36.986Z,1.70
2023-05-01T03:30:04.786Z,1.90
2023-05-01T03:32:37.064Z,1.95
2023-05-01T03:35:07.381Z,2.05
2023-05-01T03:37:34.893Z,1.83
2023-05-01T03:40:02.169Z,2.08
2023-05-01T03:42:52.647Z,1.80
2023-05-01T03:45:23.735Z,2.05
2023-05-01T03:47:51.168Z,2.15
2023-05-01T03:50:18.945Z,1.70
2023-05-01T03:52:48.829Z,1.83
2023-05-01T03:55:16.105Z,2.00
2023-05-01T03:57:47.449Z,2.00
2023-05-01T04:00:15.177Z,2.05
2023-05-01T04:02:47.787Z,2.17
2023-05-01T04:05:22.302Z,1.95
2023-05-01T04:07:58.232Z,2.20
2023-05-01T04:10:26.536Z,1.92
2023-05-01T04:13:01.399Z,2.17
2023-05-01T04:15:29.167Z,2.20
2023-05-01T04:17:57.050Z,2.22
2023-05-01T04:20:24.783Z,2.05
2023-05-01T04:22:52.113Z,2.15
2023-05-01T04:25:19.902Z,1.75
2023-05-01T04:27:49.624Z,2.47
2023-05-01T04:30:17.246Z,2.30
2023-05-01T04:32:44.790Z,1.85
2023-05-01T04:35:12.781Z,2.20
2023-05-01T04:37:43.127Z,2.22
2023-05-01T04:40:11.860Z,2.25
2023-05-01T04:42:40.884Z,2.20
2023-05-01T04:45:11.169Z,2.20
2023-05-01T04:47:38.631Z,2.20
2023-05-01T04:50:06.812Z,2.47
2023-05-01T04:52:34.282Z,2.30
2023-05-01T04:55:04.237Z,2.25
2023-05-01T04:57:37.259Z,2.40
2023-05-01T05:00:08.719Z,2.05
2023-05-01T05:02:46.752Z,2.30
2023-05-01T05:05:15.497Z,2.10
2023-05-01T05:07:42.729Z,2.53
2023-05-01T05:10:32.247Z,1.88
2023-05-01T05:13:16.318Z,2.00
2023-05-01T05:15:44.369Z,2.28
2023-05-01T05:18:12.707Z,2.33
2023-05-01T05:20:40.566Z,2.22
2023-05-01T05:23:08.597Z,2.72
2023-05-01T05:25:36.358Z,2.45
2023-05-01T05:28:03.714Z,2.53
2023-05-01T05:30:31.423Z,1.80
2023-05-01T05:32:58.677Z,2.17
2023-05-01T05:35:26.708Z,2.08
2023-05-01T05:37:55.064Z,2.28
2023-05-01T05:40:23.612Z,2.60
2023-05-01T05:42:58.036Z,2.17
2023-05-01T05:45:27.608Z,2.20
2023-05-01T05:47:55.029Z,1.90
2023-05-01T05:50:23.305Z,1.98
2023-05-01T05:52:50.412Z,1.60
2023-05-01T05:55:17.979Z,1.80
2023-05-01T05:58:02.308Z,1.83
2023-05-01T06:00:29.742Z,1.90
2023-05-01T06:03:01.290Z,2.08
2023-05-01T06:05:30.405Z,1.80
2023-05-01T06:07:57.816Z,2.30
2023-05-01T06:10:24.934Z,1.73
2023-05-01T06:12:55.080Z,2.00
2023-05-01T06:15:36.834Z,2.08
2023-05-01T06:18:05.721Z,2.50
2023-05-01T06:20:33.016Z,2.67
2023-05-01T06:23:00.358Z,2.40
2023-05-01T06:25:38.120Z,2.20
2023-05-01T06:28:05.939Z,2.33
2023-05-01T06:30:34.360Z,2.13
2023-05-01T06:33:02.380Z,2.38
2023-05-01T06:35:29.824Z,2.30
2023-05-01T06:37:57.940Z,1.98
2023-05-01T06:40:25.099Z,2.47
2023-05-01T06:42:52.867Z,2.05
2023-05-01T06:45:20.052Z,2.08
2023-05-01T06:47:47.534Z,2.50
2023-05-01T06:50:15.255Z,2.30
2023-05-01T06:52:42.505Z,3.30
2023-05-01T06:55:09.925Z,2.55
2023-05-01T06:57:37.054Z,2.63
2023-05-01T07:00:04.645Z,2.67
2023-05-01T07:02:33.067Z,2.25
2023-05-01T07:05:00.538Z,2.53
2023-05-01T07:07:27.756Z,2.75
2023-05-01T07:09:55.219Z,2.67
2023-05-01T07:12:23.451Z,2.88
2023-05-01T07:14:51.906Z,2.47
2023-05-01T07:17:19.209Z,2.38
2023-05-01T07:19:46.274Z,2.20
2023-05-01T07:22:13.853Z,1.80
2023-05-01T07:24:41.173Z,2.05
2023-05-01T07:27:08.366Z,2.05
2023-05-01T07:29:38.336Z,1.90
2023-05-01T07:32:07.865Z,2.25
2023-05-01T07:34:35.138Z,2.15
2023-05-01T07:37:03.702Z,2.10
2023-05-01T07:39:31.581Z,2.00
2023-05-01T07:41:58.802Z,2.42
2023-05-01T07:44:26.013Z,2.20
2023-05-01T07:46:53.395Z,2.10
2023-05-01T07:49:20.796Z,1.98
2023-05-01T07:51:49.685Z,1.58
2023-05-01T07:54:17.201Z,2.17
2023-05-01T07:56:44.573Z,2.13
2023-05-01T07:59:11.745Z,1.80
2023-05-01T08:01:38.851Z,1.80
2023-05-01T08:04:06.372Z,1.80
2023-05-01T08:06:33.758Z,1.73
2023-05-01T08:09:01.334Z,1.88
2023-05-01T08:11:29.563Z,1.75
2023-05-01T08:13:57.370Z,1.77
2023-05-01T08:16:25.041Z,2.05
2023-05-01T08:18:52.291Z,1.60
2023-05-01T08:21:19.664Z,1.58
2023-05-01T08:23:47.030Z,1.63
2023-05-01T08:26:14.548Z,2.05
2023-05-01T08:28:42.376Z,2.00
2023-05-01T08:31:10.668Z,2.13
2023-05-01T08:33:37.979Z,2.10
2023-05-01T08:36:05.249Z,2.70
2023-05-01T08:38:32.476Z,2.13
2023-05-01T08:41:01.760Z,2.20
2023-05-01T08:43:31.878Z,2.45
2023-05-01T08:46:05.999Z,2.20
2023-05-01T08:48:37.160Z,2.15
2023-05-01T08:51:05.824Z,1.90
2023-05-01T08:53:34.265Z,1.98
2023-05-01T08:56:04.314Z,2.20
2023-05-01T08:58:35.694Z,2.47
2023-05-01T09:01:03.434Z,2.47
2023-05-01T09:03:32.933Z,2.50
2023-05-01T09:06:03.485Z,2.33
2023-05-01T09:08:30.860Z,2.00
2023-05-01T09:10:59.713Z,2.10
2023-05-01T09:13:26.976Z,1.80
2023-05-01T09:15:54.186Z,2.22
2023-05-01T09:18:21.534Z,2.50
2023-05-01T09:20:49.048Z,2.22
2023-05-01T09:23:17.946Z,2.30
2023-05-01T09:25:45.591Z,2.78
2023-05-01T09:28:12.690Z,1.92
2023-05-01T09:30:40.052Z,1.63
2023-05-01T09:33:08.381Z,1.98
2023-05-01T09:35:58.710Z,1.85
2023-05-01T09:38:29.226Z,1.80
2023-05-01T09:41:03.791Z,1.92
2023-05-01T09:43:32.058Z,1.92
2023-05-01T09:46:09.914Z,2.10
2023-05-01T09:48:38.375Z,2.33
2023-05-01T09:51:28.888Z,1.83
2023-05-01T09:54:01.952Z,2.10
2023-05-01T09:56:31.573Z,1.90
2023-05-01T09:59:15.937Z,2.00
2023-05-01T10:01:48.874Z,1.92
2023-05-01T10:04:16.073Z,1.85
2023-05-01T10:06:43.387Z,1.75
2023-05-01T10:09:18.725Z,2.20
2023-05-01T10:11:52.708Z,2.15
2023-05-01T10:14:20.568Z,2.30
2023-05-01T10:16:47.953Z,1.92
2023-05-01T10:19:17.862Z,2.30
2023-05-01T10:21:45.130Z,1.90
2023-05-01T10:24:12.448Z,2.58
2023-05-01T10:26:40.046Z,1.88
2023-05-01T10:29:07.464Z,2.10
2023-05-01T10:31:36.051Z,2.17
2023-05-01T10:34:04.035Z,2.22
2023-05-01T10:37:03.014Z,2.08
2023-05-01T10:39:35.424Z,2.30
2023-05-01T10:42:04.853Z,2.08
2023-05-01T10:44:35.168Z,2.20
2023-05-01T10:47:34.890Z,2.13
2023-05-01T10:50:07.240Z,1.77
2023-05-01T10:53:16.597Z,1.40
2023-05-01T10:55:46.122Z,1.42
2023-05-01T10:58:15.005Z,1.77
2023-05-01T11:00:42.363Z,1.70
2023-05-01T11:03:21.911Z,1.67
2023-05-01T11:06:03.157Z,1.95
2023-05-01T11:08:37.046Z,1.92
2023-05-01T11:11:25.593Z,1.97
2023-05-01T11:14:07.494Z,2.13
2023-05-01T11:16:38.200Z,2.22
2023-05-01T11:19:09.994Z,2.28
2023-05-01T11:21:42.089Z,1.85
2023-05-01T11:24:09.711Z,1.90
2023-05-01T11:26:42.342Z,2.00
2023-05-01T11:29:10.917Z,1.80
2023-05-01T11:31:40.054Z,1.80
2023-05-01T11:34:07.541Z,1.80
2023-05-01T11:36:51.957Z,1.80
2023-05-01T11:39:19.988Z,1.88
2023-05-01T11:41:47.999Z,1.77
2023-05-01T11:44:19.762Z,1.58
2023-05-01T11:46:57.546Z,1.80
2023-05-01T11:49:28.823Z,1.90
2023-05-01T11:52:00.777Z,1.65
2023-05-01T11:54:28.686Z,1.80
2023-05-01T11:57:01.164Z,1.70
2023-05-01T11:59:28.552Z,1.88
2023-05-01T12:01:55.871Z,2.10
2023-05-01T12:04:31.603Z,2.10
2023-05-01T12:07:00.285Z,2.30
2023-05-01T12:09:28.289Z,2.13
2023-05-01T12:11:58.460Z,2.17
2023-05-01T12:14:26.189Z,2.20
2023-05-01T12:16:53.776Z,2.00
2023-05-01T12:19:23.947Z,2.13
2023-05-01T12:22:08.869Z,2.05
2023-05-01T12:24:37.752Z,2.05
2023-05-01T12:27:07.305Z,2.38
2023-05-01T12:29:47.226Z,2.47
2023-05-01T12:32:18.488Z,2.10
2023-05-01T12:34:45.777Z,2.40
2023-05-01T12:37:13.027Z,2.28
2023-05-01T12:39:44.723Z,2.33
2023-05-01T12:42:16.988Z,2.10
2023-05-01T12:44:45.031Z,1.63
2023-05-01T12:47:13.113Z,1.73
2023-05-01T12:49:40.780Z,1.98
2023-05-01T12:52:09.277Z,2.22
2023-05-01T12:54:39.142Z,2.50
2023-05-01T12:57:16.718Z,2.00
2023-05-01T12:59:46.265Z,2.00
2023-05-01T13:02:18.044Z,2.28
2023-05-01T13:04:49.395Z,1.90
2023-05-01T13:07:20.014Z,2.72
2023-05-01T13:10:00.562Z,2.20
2023-05-01T13:12:28.957Z,2.20
2023-05-01T13:14:57.320Z,2.03
2023-05-01T13:17:30.533Z,2.35
2023-05-01T13:20:00.250Z,2.00
2023-05-01T13:22:38.753Z,1.85
2023-05-01T13:25:14.807Z,2.83
2023-05-01T13:27:47.395Z,2.47
2023-05-01T13:30:16.388Z,2.58
2023-05-01T13:32:43.908Z,2.28
2023-05-01T13:35:11.480Z,2.10
2023-05-01T13:37:40.363Z,2.22
2023-05-01T13:40:08.530Z,2.58
2023-05-01T13:42:36.682Z,2.50
2023-05-01T13:45:06.553Z,2.60
2023-05-01T13:47:34.047Z,2.80
2023-05-01T13:50:01.634Z,2.60
2023-05-01T13:52:31.492Z,2.70
2023-05-01T13:54:59.841Z,2.25
2023-05-01T13:57:28.828Z,2.42
2023-05-01T13:59:56.227Z,2.40
2023-05-01T14:02:32.542Z,2.35
2023-05-01T14:05:00.942Z,2.35
2023-05-01T14:07:30.718Z,2.42
2023-05-01T14:09:59.945Z,2.40
2023-05-01T14:12:29.738Z,2.55
2023-05-01T14:14:58.413Z,2.55
2023-05-01T14:17:32.825Z,2.35
2023-05-01T14:20:00.211Z,2.55
2023-05-01T14:22:54.842Z,2.70
2023-05-01T14:25:28.619Z,2.50
2023-05-01T14:27:57.295Z,2.50
2023-05-01T14:30:38.510Z,2.30
2023-05-01T14:33:13.357Z,2.10
2023-05-01T14:38:19.321Z,2.00
2023-05-01T14:40:47.323Z,2.63
2023-05-01T14:43:17.402Z,2.53
2023-05-01T14:45:46.863Z,2.90
2023-05-01T14:48:23.626Z,3.17
2023-05-01T14:50:51.834Z,3.13
2023-05-01T14:53:21.087Z,2.53
2023-05-01T14:55:51.192Z,2.50
2023-05-01T14:58:18.595Z,2.50
2023-05-01T15:00:46.269Z,2.40
2023-05-01T15:03:13.752Z,2.20
2023-05-01T15:05:42.024Z,2.55
2023-05-01T15:08:09.533Z,2.40
2023-05-01T15:10:37.879Z,2.40
2023-05-01T15:13:06.223Z,2.70
2023-05-01T15:15:33.318Z,2.60
2023-05-01T15:18:00.626Z,2.10
2023-05-01T15:20:28.145Z,2.47
2023-05-01T15:22:56.356Z,2.38
2023-05-01T15:25:23.682Z,2.75
2023-05-01T15:27:51.508Z,2.60
2023-05-01T15:30:19.163Z,2.80
2023-05-01T15:32:46.380Z,2.50
2023-05-01T15:35:13.695Z,2.35
2023-05-01T15:37:41.539Z,2.88
2023-05-01T15:40:09.232Z,2.80
2023-05-01T15:42:36.578Z,3.28
2023-05-01T15:45:04.009Z,2.60
2023-05-01T15:47:37.166Z,2.55
2023-05-01T15:50:13.712Z,2.83
2023-05-01T15:52:40.904Z,6.13
2023-05-01T15:55:08.605Z,3.38
2023-05-01T15:57:35.853Z,3.75
2023-05-01T16:00:04.682Z,3.70
2023-05-01T16:02:34.521Z,2.97
2023-05-01T16:05:01.724Z,2.53
2023-05-01T16:07:31.033Z,2.38
2023-05-01T16:09:58.833Z,2.15
2023-05-01T16:12:29.527Z,1.80
2023-05-01T16:14:57.065Z,2.53
2023-05-01T16:17:24.311Z,2.30
2023-05-01T16:19:52.803Z,2.20
2023-05-01T16:22:21.511Z,1.80
2023-05-01T16:24:48.923Z,1.95
2023-05-01T16:27:18.424Z,2.70
2023-05-01T16:29:45.818Z,2.35
2023-05-01T16:32:14.852Z,2.90
2023-05-01T16:34:43.171Z,2.80
2023-05-01T16:37:13.290Z,2.50
2023-05-01T16:39:40.572Z,2.45
2023-05-01T16:42:12.637Z,2.38
2023-05-01T16:44:39.885Z,2.50
2023-05-01T16:47:07.380Z,2.97
2023-05-01T16:49:37.992Z,2.65
2023-05-01T16:52:05.156Z,2.80
2023-05-01T16:54:36.341Z,2.72
2023-05-01T16:57:03.817Z,2.58
2023-05-01T16:59:34.564Z,2.67
2023-05-01T17:02:02.133Z,2.58
2023-05-01T17:04:30.764Z,2.65
2023-05-01T17:06:58.473Z,2.22
2023-05-01T17:09:26.689Z,2.60
2023-05-01T17:11:56.902Z,2.22
2023-05-01T17:14:24.847Z,2.22
2023-05-01T17:16:53.165Z,2.00
2023-05-01T17:19:21.686Z,1.95
2023-05-01T17:21:49.024Z,2.10
2023-05-01T17:24:17.019Z,1.90
2023-05-01T17:26:44.327Z,1.60
2023-05-01T17:29:11.495Z,1.70
2023-05-01T17:31:38.935Z,1.85
2023-05-01T17:34:06.292Z,1.80
2023-05-01T17:36:33.663Z,1.55
2023-05-01T17:39:01.639Z,1.80
2023-05-01T17:41:29.791Z,1.70
2023-05-01T17:43:57.301Z,1.88
2023-05-01T17:46:25.121Z,1.80
2023-05-01T17:48:52.456Z,1.58
2023-05-01T17:51:19.748Z,1.58
2023-05-01T17:53:46.911Z,1.70
2023-05-01T17:56:14.429Z,1.85
2023-05-01T17:58:42.256Z,1.60
2023-05-01T18:01:10.609Z,1.73
2023-05-01T18:03:38.188Z,1.77
2023-05-01T18:06:05.604Z,1.60
2023-05-01T18:08:32.776Z,1.70
2023-05-01T18:11:07.335Z,2.00
2023-05-01T18:13:38.364Z,1.80
2023-05-01T18:16:06.170Z,1.63
2023-05-01T18:18:33.992Z,1.77
2023-05-01T18:21:01.342Z,1.92
2023-05-01T18:23:28.549Z,2.00
2023-05-01T18:25:56.756Z,1.80
2023-05-01T18:28:23.890Z,1.75
2023-05-01T18:30:51.202Z,1.77
2023-05-01T18:33:21.700Z,1.80
2023-05-01T18:35:48.896Z,2.00
2023-05-01T18:38:16.314Z,2.25
2023-05-01T18:40:43.654Z,1.70
2023-05-01T18:43:12.385Z,1.95
2023-05-01T18:45:40.346Z,2.42
2023-05-01T18:48:08.569Z,1.90
2023-05-01T18:50:36.083Z,1.77
2023-05-01T18:53:03.771Z,1.80
2023-05-01T18:55:31.185Z,1.50
2023-05-01T18:57:58.606Z,1.60
2023-05-01T19:00:26.686Z,2.00
2023-05-01T19:02:54.074Z,1.40
2023-05-01T19:05:22.819Z,1.40
2023-05-01T19:07:50.287Z,1.48
2023-05-01T19:10:17.868Z,1.27
2023-05-01T19:12:44.952Z,1.27
2023-05-01T19:15:13.741Z,1.20
2023-05-01T19:17:40.972Z,1.75
2023-05-01T19:20:08.842Z,1.30
2023-05-01T19:22:36.245Z,1.20
2023-05-01T19:25:03.699Z,1.30
2023-05-01T19:27:31.979Z,1.45
2023-05-01T19:30:01.417Z,1.40
2023-05-01T19:32:32.291Z,1.20
2023-05-01T19:34:59.540Z,1.60
2023-05-01T19:37:28.065Z,1.33
2023-05-01T19:39:55.410Z,1.02
2023-05-01T19:42:25.557Z,1.33
2023-05-01T19:44:52.817Z,0.90
2023-05-01T19:47:20.253Z,1.08
2023-05-01T19:49:47.313Z,1.00
2023-05-01T19:52:15.000Z,1.30
2023-05-01T19:54:43.910Z,1.05
2023-05-01T19:57:11.745Z,1.00
2023-05-01T19:59:43.006Z,0.90
2023-05-01T20:02:10.225Z,0.95
2023-05-01T20:04:37.771Z,1.20
2023-05-01T20:07:05.054Z,1.30
2023-05-01T20:09:32.339Z,1.20
2023-05-01T20:12:01.691Z,1.23
2023-05-01T20:14:30.347Z,1.30
2023-05-01T20:16:58.308Z,1.33
2023-05-01T20:19:26.322Z,1.33
2023-05-01T20:21:53.718Z,1.40
2023-05-01T20:24:22.465Z,1.83
2023-05-01T20:26:50.643Z,1.38
2023-05-01T20:29:18.100Z,1.60
2023-05-01T20:31:49.111Z,1.70
2023-05-01T20:34:16.479Z,1.73
2023-05-01T20:36:43.737Z,1.83
2023-05-01T20:39:11.429Z,2.10
2023-05-01T20:41:38.650Z,1.70
2023-05-01T20:44:07.254Z,2.10
2023-05-01T20:46:34.569Z,2.00
2023-05-01T20:49:01.941Z,2.17
2023-05-01T20:51:29.258Z,2.10
2023-05-01T20:53:56.416Z,2.28
2023-05-01T20:56:24.032Z,2.50
2023-05-01T20:58:51.121Z,2.30
2023-05-01T21:01:18.621Z,2.10
2023-05-01T21:03:46.020Z,2.10
2023-05-01T21:06:16.110Z,2.25
2023-05-01T21:08:43.557Z,2.30
2023-05-01T21:11:10.872Z,2.53
2023-05-01T21:13:38.334Z,2.53
2023-05-01T21:16:09.706Z,2.35
2023-05-01T21:18:37.066Z,2.70
2023-05-01T21:21:04.462Z,2.78
2023-05-01T21:23:31.756Z,2.85
2023-05-01T21:25:59.192Z,2.90
2023-05-01T21:28:26.516Z,2.63
2023-05-01T21:30:54.047Z,3.10
2023-05-01T21:33:21.543Z,2.90
2023-05-01T21:35:49.568Z,3.13
2023-05-01T21:38:16.808Z,2.75
2023-05-01T21:40:46.180Z,3.00
2023-05-01T21:43:13.695Z,2.70
2023-05-01T21:45:44.573Z,3.00
2023-05-01T21:48:15.024Z,3.28
2023-05-01T21:50:42.491Z,2.80
2023-05-01T21:53:09.860Z,3.08
2023-05-01T21:55:37.045Z,3.00
2023-05-01T21:58:04.312Z,2.90
2023-05-01T22:00:31.963Z,2.85
2023-05-01T22:02:59.530Z,3.13
2023-05-01T22:05:31.046Z,3.03
2023-05-01T22:07:58.772Z,3.17
2023-05-01T22:10:26.073Z,2.80
2023-05-01T22:12:53.682Z,2.83
2023-05-01T22:15:20.889Z,2.70
2023-05-01T22:17:48.340Z,2.65
2023-05-01T22:20:15.649Z,3.05
2023-05-01T22:22:46.098Z,2.83
2023-05-01T22:25:13.474Z,2.83
2023-05-01T22:27:41.129Z,2.83
2023-05-01T22:30:08.807Z,2.70
2023-05-01T22:32:36.698Z,2.70
2023-05-01T22:35:04.393Z,2.60
2023-05-01T22:37:33.854Z,2.80
2023-05-01T22:40:01.589Z,2.65
2023-05-01T22:42:32.546Z,2.50
2023-05-01T22:44:59.647Z,2.00
2023-05-01T22:47:26.939Z,2.25
2023-05-01T22:49:54.207Z,2.50
2023-05-01T22:52:21.454Z,2.13
2023-05-01T22:54:50.590Z,2.20
2023-05-01T22:57:17.900Z,2.38
2023-05-01T22:59:45.892Z,2.47
2023-05-01T23:02:16.420Z,2.22
2023-05-01T23:04:44.106Z,2.20
2023-05-01T23:07:13.811Z,2.70
2023-05-01T23:09:41.705Z,2.40
2023-05-01T23:12:16.805Z,2.42
2023-05-01T23:14:46.140Z,2.80
2023-05-01T23:17:14.909Z,2.85
2023-05-01T23:19:45.495Z,2.40
2023-05-01T23:22:13.899Z,2.65
2023-05-01T23:24:41.101Z,2.30
2023-05-01T23:27:08.777Z,2.40
2023-05-01T23:29:36.056Z,2.55
2023-05-01T23:32:03.303Z,2.33
2023-05-01T23:34:30.687Z,2.47
2023-05-01T23:36:57.847Z,2.10
2023-05-01T23:39:25.084Z,2.58
2023-05-01T23:41:53.103Z,2.75
2023-05-01T23:44:20.599Z,2.50
2023-05-01T23:46:47.844Z,2.65
2023-05-01T23:49:15.232Z,2.33
2023-05-01T23:51:42.504Z,2.88
2023-05-01T23:54:09.603Z,2.85
2023-05-01T23:56:36.873Z,3.78
2023-05-01T23:59:04.032Z,2.65
